Aviation Digital Data Service (ADDS)

Output produced by METARs form (1927 UTC 18 June 2019)
found at http://www.aviationweather.gov/metar/data/
 
DFOO 181900Z 24003KT 200V290 9999 FEW020 33/22 Q1014
TAF DFOO 181700Z 1818/1918 18008KT 9999 FEW020 
     TEMPO 1819/1902 4000 TSRA SCT020 FEW033CB
       
DFFD 181900Z 18006KT CAVOK 36/19 Q1012 NOSIG
TAF DFFD 181700Z 1818/1924 20008KT 9999 FEW020 
     PROB30 
     TEMPO 1821/1904 4000 TSRA SCT020 FEW040CB 
     TEMPO 1914/1922 4000 TSRA SCT020 FEW040CB